ANA1725 ROAH-ROMY
Flight info
| Callsign | ANA1725 |
|---|---|
| Flight time | 0h 35m |
| Altitude | 30000 |
| Route | GANJU Y576 YUTAH |
| Aircraft | B738/M-SDE2E3FGHIRWXY/LB1 |
Departure
| Time | 2026-04-24 19:22 |
|---|---|
| Airport | Naha International Airport (ROAH) |
Arrival
| Time | 2026-04-24 19:57 |
|---|---|
| Airport | Miyako Airport (ROMY) |
| Time | Latitude | Longitude | Altitude | Speed | Heading |
|---|---|---|---|---|---|
| 2026-04-24 19:01 | 26.20713 | 127.64929 | 21 ft | 0 kts | 28° |
| 2026-04-24 19:09 | 26.20710 | 127.64927 | 21 ft | 3 kts | 28° |
| 2026-04-24 19:10 | 26.20687 | 127.64913 | 23 ft | 4 kts | 23° |
| 2026-04-24 19:10 | 26.20662 | 127.64905 | 23 ft | 4 kts | 356° |
| 2026-04-24 19:10 | 26.20641 | 127.64914 | 22 ft | 4 kts | 296° |
| 2026-04-24 19:10 | 26.20637 | 127.64927 | 25 ft | 0 kts | 268° |
| 2026-04-24 19:16 | 26.20636 | 127.64904 | 23 ft | 6 kts | 268° |
| 2026-04-24 19:16 | 26.20634 | 127.64841 | 21 ft | 9 kts | 266° |
| 2026-04-24 19:16 | 26.20595 | 127.64767 | 21 ft | 14 kts | 211° |
| 2026-04-24 19:17 | 26.20480 | 127.64761 | 21 ft | 20 kts | 178° |
| 2026-04-24 19:17 | 26.20327 | 127.64767 | 21 ft | 18 kts | 177° |
| 2026-04-24 19:17 | 26.20186 | 127.64774 | 21 ft | 23 kts | 178° |
| 2026-04-24 19:17 | 26.20008 | 127.64782 | 21 ft | 28 kts | 178° |
| 2026-04-24 19:18 | 26.19826 | 127.64790 | 21 ft | 23 kts | 177° |
| 2026-04-24 19:18 | 26.19669 | 127.64797 | 21 ft | 22 kts | 177° |
| 2026-04-24 19:18 | 26.19517 | 127.64805 | 21 ft | 22 kts | 177° |
| 2026-04-24 19:18 | 26.19370 | 127.64812 | 21 ft | 21 kts | 178° |
| 2026-04-24 19:19 | 26.19242 | 127.64818 | 21 ft | 18 kts | 178° |
| 2026-04-24 19:19 | 26.19122 | 127.64823 | 21 ft | 17 kts | 178° |
| 2026-04-24 19:19 | 26.19007 | 127.64829 | 22 ft | 17 kts | 178° |
| 2026-04-24 19:19 | 26.18880 | 127.64835 | 22 ft | 19 kts | 178° |
| 2026-04-24 19:20 | 26.18745 | 127.64841 | 22 ft | 21 kts | 178° |
| 2026-04-24 19:20 | 26.18592 | 127.64848 | 22 ft | 22 kts | 178° |
| 2026-04-24 19:20 | 26.18514 | 127.64772 | 21 ft | 17 kts | 262° |
| 2026-04-24 19:20 | 26.18510 | 127.64665 | 20 ft | 10 kts | 269° |
| 2026-04-24 19:21 | 26.18532 | 127.64642 | 21 ft | 4 kts | 1° |
| 2026-04-24 19:21 | 26.18568 | 127.64642 | 21 ft | 13 kts | 358° |
| 2026-04-24 19:21 | 26.18928 | 127.64623 | 23 ft | 97 kts | 358° |
| 2026-04-24 19:21 | 26.19862 | 127.64578 | 146 ft | 164 kts | 357° |
| 2026-04-24 19:22 | 26.20663 | 127.64530 | 678 ft | 169 kts | 357° |
| 2026-04-24 19:22 | 26.22217 | 127.64459 | 1941 ft | 187 kts | 357° |
| 2026-04-24 19:22 | 26.23645 | 127.64389 | 2191 ft | 220 kts | 357° |
| 2026-04-24 19:22 | 26.25225 | 127.64312 | 2709 ft | 232 kts | 352° |
| 2026-04-24 19:23 | 26.26735 | 127.63662 | 3395 ft | 235 kts | 328° |
| 2026-04-24 19:23 | 26.28172 | 127.62725 | 3993 ft | 248 kts | 327° |
| 2026-04-24 19:23 | 26.29706 | 127.61734 | 4715 ft | 259 kts | 327° |
| 2026-04-24 19:23 | 26.31270 | 127.60731 | 5734 ft | 260 kts | 327° |
| 2026-04-24 19:24 | 26.32848 | 127.59723 | 6687 ft | 263 kts | 327° |
| 2026-04-24 19:24 | 26.34451 | 127.58702 | 7562 ft | 268 kts | 326° |
| 2026-04-24 19:24 | 26.36064 | 127.57675 | 8431 ft | 273 kts | 326° |
| 2026-04-24 19:24 | 26.37732 | 127.56615 | 9307 ft | 278 kts | 326° |
| 2026-04-24 19:25 | 26.39410 | 127.55508 | 10160 ft | 281 kts | 319° |
| 2026-04-24 19:25 | 26.40715 | 127.53873 | 10580 ft | 292 kts | 294° |
| 2026-04-24 19:25 | 26.41241 | 127.51624 | 10773 ft | 313 kts | 269° |
| 2026-04-24 19:25 | 26.40778 | 127.49192 | 10961 ft | 336 kts | 244° |
| 2026-04-24 19:26 | 26.39344 | 127.47049 | 11360 ft | 352 kts | 230° |
| 2026-04-24 19:26 | 26.37684 | 127.45021 | 12046 ft | 355 kts | 230° |
| 2026-04-24 19:26 | 26.36039 | 127.42971 | 12877 ft | 354 kts | 230° |
| 2026-04-24 19:26 | 26.34437 | 127.40941 | 13694 ft | 354 kts | 230° |
| 2026-04-24 19:27 | 26.32738 | 127.38947 | 14386 ft | 355 kts | 227° |
| 2026-04-24 19:27 | 26.30965 | 127.37012 | 15005 ft | 359 kts | 226° |
| 2026-04-24 19:27 | 26.29160 | 127.35075 | 15580 ft | 361 kts | 226° |
| 2026-04-24 19:27 | 26.27348 | 127.33127 | 16171 ft | 363 kts | 226° |
| 2026-04-24 19:28 | 26.25527 | 127.31159 | 16743 ft | 366 kts | 226° |
| 2026-04-24 19:28 | 26.23696 | 127.29169 | 17252 ft | 370 kts | 227° |
| 2026-04-24 19:28 | 26.21873 | 127.27182 | 17772 ft | 373 kts | 227° |
| 2026-04-24 19:28 | 26.20017 | 127.25155 | 18327 ft | 375 kts | 227° |
| 2026-04-24 19:29 | 26.16271 | 127.21065 | 19233 ft | 380 kts | 227° |
| 2026-04-24 19:29 | 26.14376 | 127.18998 | 19629 ft | 383 kts | 227° |
| 2026-04-24 19:29 | 26.12493 | 127.16885 | 19972 ft | 385 kts | 231° |
| 2026-04-24 19:30 | 26.10937 | 127.14459 | 20018 ft | 388 kts | 239° |
| 2026-04-24 19:30 | 26.09514 | 127.11879 | 20027 ft | 396 kts | 240° |
| 2026-04-24 19:30 | 26.08093 | 127.09270 | 20046 ft | 402 kts | 240° |
| 2026-04-24 19:30 | 26.06631 | 127.06607 | 20016 ft | 404 kts | 239° |
| 2026-04-24 19:31 | 26.05158 | 127.03955 | 20026 ft | 403 kts | 239° |
| 2026-04-24 19:31 | 26.03674 | 127.01310 | 20045 ft | 403 kts | 239° |
| 2026-04-24 19:31 | 26.02186 | 126.98673 | 20033 ft | 404 kts | 239° |
| 2026-04-24 19:31 | 26.00688 | 126.96028 | 20031 ft | 404 kts | 239° |
| 2026-04-24 19:32 | 25.99193 | 126.93393 | 20029 ft | 403 kts | 239° |
| 2026-04-24 19:32 | 25.97696 | 126.90756 | 20029 ft | 403 kts | 239° |
| 2026-04-24 19:32 | 25.96218 | 126.88155 | 20030 ft | 403 kts | 239° |
| 2026-04-24 19:32 | 25.94723 | 126.85523 | 20030 ft | 403 kts | 239° |
| 2026-04-24 19:33 | 25.93228 | 126.82893 | 20030 ft | 403 kts | 239° |
| 2026-04-24 19:33 | 25.91735 | 126.80268 | 20031 ft | 402 kts | 238° |
| 2026-04-24 19:33 | 25.90240 | 126.77640 | 20031 ft | 402 kts | 239° |
| 2026-04-24 19:33 | 25.88744 | 126.75012 | 20030 ft | 402 kts | 238° |
| 2026-04-24 19:34 | 25.87249 | 126.72388 | 20031 ft | 402 kts | 239° |
| 2026-04-24 19:34 | 25.85798 | 126.69737 | 20026 ft | 402 kts | 240° |
| 2026-04-24 19:34 | 25.84412 | 126.67047 | 20027 ft | 402 kts | 241° |
| 2026-04-24 19:34 | 25.83062 | 126.64373 | 20029 ft | 402 kts | 242° |
| 2026-04-24 19:35 | 25.81700 | 126.61666 | 20029 ft | 402 kts | 241° |
| 2026-04-24 19:35 | 25.80333 | 126.58962 | 20026 ft | 402 kts | 241° |
| 2026-04-24 19:35 | 25.78961 | 126.56264 | 20029 ft | 402 kts | 241° |
| 2026-04-24 19:35 | 25.77584 | 126.53569 | 20023 ft | 402 kts | 241° |
| 2026-04-24 19:36 | 25.76203 | 126.50874 | 20029 ft | 402 kts | 241° |
| 2026-04-24 19:36 | 25.74823 | 126.48189 | 20021 ft | 402 kts | 241° |
| 2026-04-24 19:36 | 25.73438 | 126.45497 | 20023 ft | 402 kts | 241° |
| 2026-04-24 19:36 | 25.72050 | 126.42802 | 20028 ft | 402 kts | 241° |
| 2026-04-24 19:37 | 25.70661 | 126.40106 | 20030 ft | 403 kts | 241° |
| 2026-04-24 19:37 | 25.69289 | 126.37446 | 20028 ft | 403 kts | 241° |
| 2026-04-24 19:37 | 25.67896 | 126.34746 | 20027 ft | 403 kts | 241° |
| 2026-04-24 19:37 | 25.66505 | 126.32051 | 20030 ft | 403 kts | 241° |
| 2026-04-24 19:38 | 25.65114 | 126.29357 | 20024 ft | 403 kts | 241° |
| 2026-04-24 19:38 | 25.63721 | 126.26662 | 20025 ft | 403 kts | 240° |
| 2026-04-24 19:38 | 25.62328 | 126.23969 | 20031 ft | 403 kts | 241° |
| 2026-04-24 19:38 | 25.60937 | 126.21279 | 20029 ft | 402 kts | 241° |
| 2026-04-24 19:39 | 25.59544 | 126.18589 | 20022 ft | 402 kts | 241° |
| 2026-04-24 19:39 | 25.58155 | 126.15906 | 20010 ft | 402 kts | 240° |
| 2026-04-24 19:39 | 25.56783 | 126.13258 | 20019 ft | 402 kts | 240° |
| 2026-04-24 19:39 | 25.55390 | 126.10573 | 20030 ft | 402 kts | 240° |
| 2026-04-24 19:40 | 25.53994 | 126.07882 | 20029 ft | 403 kts | 240° |
| 2026-04-24 19:40 | 25.52597 | 126.05191 | 20017 ft | 404 kts | 240° |
| 2026-04-24 19:40 | 25.51198 | 126.02498 | 20019 ft | 404 kts | 240° |
| 2026-04-24 19:40 | 25.49798 | 125.99803 | 20018 ft | 404 kts | 240° |
| 2026-04-24 19:41 | 25.48395 | 125.97104 | 20026 ft | 404 kts | 240° |
| 2026-04-24 19:41 | 25.46995 | 125.94412 | 20017 ft | 404 kts | 240° |
| 2026-04-24 19:41 | 25.45590 | 125.91713 | 20023 ft | 404 kts | 240° |
| 2026-04-24 19:41 | 25.44206 | 125.89057 | 20025 ft | 404 kts | 240° |
| 2026-04-24 19:42 | 25.42803 | 125.86367 | 20006 ft | 404 kts | 240° |
| 2026-04-24 19:42 | 25.41401 | 125.83678 | 20014 ft | 404 kts | 240° |
| 2026-04-24 19:42 | 25.39997 | 125.80988 | 20008 ft | 400 kts | 240° |
| 2026-04-24 19:42 | 25.38624 | 125.78356 | 19619 ft | 392 kts | 240° |
| 2026-04-24 19:43 | 25.37278 | 125.75779 | 19068 ft | 384 kts | 240° |
| 2026-04-24 19:43 | 25.35950 | 125.73241 | 18465 ft | 379 kts | 239° |
| 2026-04-24 19:43 | 25.34408 | 125.70897 | 17713 ft | 378 kts | 226° |
| 2026-04-24 19:43 | 25.32438 | 125.68987 | 17035 ft | 374 kts | 223° |
| 2026-04-24 19:44 | 25.30481 | 125.67108 | 16358 ft | 371 kts | 224° |
| 2026-04-24 19:44 | 25.28583 | 125.65256 | 15723 ft | 367 kts | 224° |
| 2026-04-24 19:44 | 25.26683 | 125.63388 | 15083 ft | 364 kts | 224° |
| 2026-04-24 19:44 | 25.24799 | 125.61530 | 14455 ft | 361 kts | 224° |
| 2026-04-24 19:45 | 25.22931 | 125.59686 | 13810 ft | 359 kts | 224° |
| 2026-04-24 19:45 | 25.21071 | 125.57848 | 13132 ft | 358 kts | 224° |
| 2026-04-24 19:45 | 25.19220 | 125.56020 | 12481 ft | 356 kts | 224° |
| 2026-04-24 19:45 | 25.17382 | 125.54206 | 11873 ft | 354 kts | 224° |
| 2026-04-24 19:46 | 25.15576 | 125.52425 | 11274 ft | 352 kts | 224° |
| 2026-04-24 19:46 | 25.13780 | 125.50657 | 11085 ft | 339 kts | 224° |
| 2026-04-24 19:46 | 25.12053 | 125.48957 | 10925 ft | 326 kts | 224° |
| 2026-04-24 19:46 | 25.10388 | 125.47320 | 10780 ft | 315 kts | 224° |
| 2026-04-24 19:47 | 25.08783 | 125.45741 | 10642 ft | 304 kts | 224° |
| 2026-04-24 19:47 | 25.07229 | 125.44212 | 10515 ft | 294 kts | 224° |
| 2026-04-24 19:47 | 25.05724 | 125.42731 | 10389 ft | 286 kts | 224° |
| 2026-04-24 19:47 | 25.04263 | 125.41294 | 10261 ft | 277 kts | 224° |
| 2026-04-24 19:48 | 25.02846 | 125.39901 | 10149 ft | 269 kts | 224° |
| 2026-04-24 19:48 | 25.01485 | 125.38564 | 10039 ft | 262 kts | 224° |
| 2026-04-24 19:48 | 24.98775 | 125.35899 | 9483 ft | 261 kts | 224° |
| 2026-04-24 19:49 | 24.96063 | 125.33235 | 8883 ft | 261 kts | 224° |
| 2026-04-24 19:49 | 24.93340 | 125.30564 | 8269 ft | 263 kts | 224° |
| 2026-04-24 19:50 | 24.89221 | 125.26525 | 7346 ft | 266 kts | 224° |
| 2026-04-24 19:50 | 24.87854 | 125.25185 | 7030 ft | 267 kts | 224° |
| 2026-04-24 19:51 | 24.85063 | 125.22451 | 6410 ft | 270 kts | 224° |
| 2026-04-24 19:51 | 24.83659 | 125.21076 | 6075 ft | 271 kts | 224° |
| 2026-04-24 19:52 | 24.80842 | 125.18320 | 5476 ft | 271 kts | 224° |
| 2026-04-24 19:52 | 24.79433 | 125.16944 | 5180 ft | 271 kts | 224° |
| 2026-04-24 19:52 | 24.78013 | 125.15580 | 4900 ft | 270 kts | 221° |
| 2026-04-24 19:52 | 24.76562 | 125.14317 | 4642 ft | 269 kts | 220° |
| 2026-04-24 19:53 | 24.75088 | 125.13060 | 4375 ft | 267 kts | 219° |
| 2026-04-24 19:53 | 24.73586 | 125.11868 | 4110 ft | 266 kts | 208° |
| 2026-04-24 19:53 | 24.70016 | 125.11953 | 3614 ft | 268 kts | 152° |
| 2026-04-24 19:54 | 24.68592 | 125.13258 | 3364 ft | 268 kts | 130° |
| 2026-04-24 19:54 | 24.67433 | 125.14854 | 3099 ft | 267 kts | 126° |
| 2026-04-24 19:54 | 24.66670 | 125.16682 | 2804 ft | 264 kts | 97° |
| 2026-04-24 19:54 | 24.66674 | 125.18006 | 2647 ft | 260 kts | 78° |
| 2026-04-24 19:55 | 24.67044 | 125.19239 | 2482 ft | 257 kts | 62° |
| 2026-04-24 19:55 | 24.69029 | 125.21579 | 2085 ft | 252 kts | 37° |
| 2026-04-24 19:55 | 24.70424 | 125.22738 | 1904 ft | 248 kts | 37° |
| 2026-04-24 19:55 | 24.71771 | 125.23877 | 1601 ft | 239 kts | 38° |
| 2026-04-24 19:56 | 24.73047 | 125.24979 | 1285 ft | 227 kts | 38° |
| 2026-04-24 19:56 | 24.73853 | 125.25677 | 1099 ft | 218 kts | 38° |
| 2026-04-24 19:56 | 24.75010 | 125.26680 | 830 ft | 205 kts | 38° |
| 2026-04-24 19:56 | 24.76080 | 125.27606 | 555 ft | 187 kts | 37° |
| 2026-04-24 19:57 | 24.77055 | 125.28449 | 325 ft | 170 kts | 37° |
| 2026-04-24 19:57 | 24.78185 | 125.29421 | 152 ft | 140 kts | 37° |
| 2026-04-24 19:57 | 24.78849 | 125.30000 | 155 ft | 97 kts | 39° |
| 2026-04-24 19:57 | 24.79225 | 125.30389 | 160 ft | 25 kts | 107° |
| 2026-04-24 19:58 | 24.79193 | 125.30437 | 159 ft | 0 kts | 103° |